Time;durP1;ratioP1;P1;durP2;ratioP2;P2;SDS_P1;SDS_P2;PMS_P1;PMS_P2;Temp;Humidity;BMP_temperature;BMP_pressure;BME280_temperature;BME280_humidity;BME280_pressure;Samples;Min_cycle;Max_cycle;Signal;HPM_P1;HPM_P2
2023/04/25 00:02:06;;;;;;;10.60;6.40;;;;;;;11.68;100.00;99956.52;105235;1254;69445;-59
2023/04/25 00:04:34;;;;;;;9.00;6.00;;;;;;;11.68;100.00;99960.27;105502;1254;75135;-58
2023/04/25 00:07:01;;;;;;;8.10;5.90;;;;;;;11.67;100.00;99955.81;105662;1259;64212;-63
2023/04/25 00:09:29;;;;;;;7.10;5.90;;;;;;;11.68;100.00;99955.16;105470;1254;62226;-57
2023/04/25 00:11:56;;;;;;;9.20;6.70;;;;;;;11.68;100.00;99949.38;105434;1254;75228;-58
2023/04/25 00:14:23;;;;;;;9.40;6.20;;;;;;;11.68;100.00;99948.78;105579;1259;68787;-57
2023/04/25 00:16:52;;;;;;;8.10;6.00;;;;;;;11.68;100.00;99948.17;105486;1254;75110;-58
2023/04/25 00:19:19;;;;;;;8.50;6.50;;;;;;;11.68;100.00;99947.16;105501;1259;63300;-62
2023/04/25 00:21:47;;;;;;;10.20;6.50;;;;;;;11.69;100.00;99945.44;105584;1254;62591;-60
2023/04/25 00:24:14;;;;;;;10.30;7.30;;;;;;;11.69;100.00;99942.23;105647;1256;76365;-57
2023/04/25 00:26:41;;;;;;;8.50;5.90;;;;;;;11.71;100.00;99937.21;105575;1259;68274;-59
2023/04/25 00:29:08;;;;;;;10.20;8.00;;;;;;;11.75;100.00;99938.70;105344;1254;75148;-58
2023/04/25 00:31:35;;;;;;;10.20;7.40;;;;;;;11.75;100.00;99943.13;105471;1257;62846;-64
2023/04/25 00:34:03;;;;;;;8.50;6.60;;;;;;;11.74;100.00;99936.17;105662;1254;62218;-58
2023/04/25 00:36:30;;;;;;;9.60;6.90;;;;;;;11.74;100.00;99939.98;105402;1259;75097;-58
2023/04/25 00:38:57;;;;;;;9.10;6.80;;;;;;;11.71;100.00;99937.94;105690;1259;68476;-58
2023/04/25 00:41:25;;;;;;;10.40;7.00;;;;;;;11.74;100.00;99932.04;105343;1254;75230;-58
2023/04/25 00:43:53;;;;;;;10.70;8.00;;;;;;;11.76;100.00;99933.33;105274;1260;63113;-59
2023/04/25 00:46:21;;;;;;;11.00;6.60;;;;;;;11.72;100.00;99932.06;105542;1254;61805;-58
2023/04/25 00:48:48;;;;;;;9.70;7.60;;;;;;;11.71;100.00;99936.04;105593;1255;76585;-58
2023/04/25 00:51:21;;;;;;;11.00;8.10;;;;;;;11.71;100.00;99934.96;105619;1256;68641;-58
2023/04/25 00:53:49;;;;;;;11.10;8.40;;;;;;;11.71;100.00;99933.80;105480;1257;74210;-59
2023/04/25 00:56:17;;;;;;;11.40;8.70;;;;;;;11.71;100.00;99934.61;105447;1254;64898;-58
2023/04/25 00:58:44;;;;;;;9.90;7.10;;;;;;;11.70;100.00;99929.14;105646;1254;61360;-58
2023/04/25 01:01:11;;;;;;;9.80;7.50;;;;;;;11.69;100.00;99929.09;105562;1254;75583;-58
2023/04/25 01:03:42;;;;;;;9.60;7.60;;;;;;;11.69;100.00;99917.80;105804;1259;68571;-59
2023/04/25 01:06:10;;;;;;;8.70;7.50;;;;;;;11.71;100.00;99918.37;105333;1259;75267;-58
2023/04/25 01:08:38;;;;;;;9.80;7.80;;;;;;;11.72;100.00;99919.14;105444;1259;64237;-58
2023/04/25 01:11:06;;;;;;;11.60;8.10;;;;;;;11.75;100.00;99914.06;105387;1255;62634;-64
2023/04/25 01:13:33;;;;;;;11.40;7.30;;;;;;;11.78;100.00;99917.05;105098;1254;75094;-59
2023/04/25 01:16:00;;;;;;;8.00;6.70;;;;;;;11.79;100.00;99915.83;105575;1259;68503;-59
2023/04/25 01:18:27;;;;;;;8.80;7.70;;;;;;;11.79;100.00;99916.14;105320;1260;74302;-57
2023/04/25 01:20:55;;;;;;;8.60;7.00;;;;;;;11.78;100.00;99912.77;105494;1256;63493;-58
2023/04/25 01:23:22;;;;;;;8.10;7.10;;;;;;;11.78;100.00;99912.61;105495;1254;61522;-58
2023/04/25 01:25:51;;;;;;;9.10;7.60;;;;;;;11.79;100.00;99907.51;105385;1260;76037;-58
2023/04/25 01:28:18;;;;;;;8.90;7.40;;;;;;;11.81;100.00;99906.36;105732;1257;68643;-62
2023/04/25 01:30:45;;;;;;;12.30;7.80;;;;;;;11.81;100.00;99903.60;105516;1255;75483;-58
2023/04/25 01:33:13;;;;;;;10.90;8.80;;;;;;;11.80;100.00;99902.11;105397;1258;63593;-59
2023/04/25 01:35:40;;;;;;;9.90;8.40;;;;;;;11.77;100.00;99899.70;105342;1259;61720;-58
2023/04/25 01:38:08;;;;;;;10.10;7.80;;;;;;;11.67;100.00;99899.29;105456;1255;76378;-58
2023/04/25 01:40:37;;;;;;;10.10;8.40;;;;;;;11.73;100.00;99896.11;105594;1254;69759;-64
2023/04/25 01:43:04;;;;;;;10.50;7.70;;;;;;;11.73;100.00;99894.14;105056;1259;74895;-62
2023/04/25 01:45:32;;;;;;;10.60;7.80;;;;;;;11.73;100.00;99887.08;105180;1257;64511;-59
2023/04/25 01:47:59;;;;;;;9.30;8.20;;;;;;;11.71;100.00;99884.83;105521;1257;61766;-58
2023/04/25 01:50:27;;;;;;;9.10;8.00;;;;;;;11.69;100.00;99882.58;105415;1259;76192;-58
2023/04/25 01:52:54;;;;;;;8.20;7.30;;;;;;;11.68;100.00;99880.60;105036;1261;68885;-59
2023/04/25 01:55:21;;;;;;;12.50;8.50;;;;;;;11.67;100.00;99879.25;105403;1255;75442;-59
2023/04/25 01:57:56;;;;;;;12.00;7.50;;;;;;;11.66;100.00;99878.80;105458;1259;63499;-58
2023/04/25 02:00:34;;;;;;;8.00;6.90;;;;;;;11.65;100.00;99873.89;105337;1260;61665;-59
2023/04/25 02:03:02;;;;;;;7.80;6.00;;;;;;;11.64;100.00;99869.33;105284;1255;76187;-58
2023/04/25 02:05:38;;;;;;;11.30;7.30;;;;;;;11.64;100.00;99870.57;105288;1254;69597;-58
2023/04/25 02:08:08;;;;;;;10.60;7.20;;;;;;;11.64;100.00;99869.60;105398;1257;74950;-58
2023/04/25 02:10:35;;;;;;;9.40;6.90;;;;;;;11.63;100.00;99864.13;105541;1256;63566;-58
2023/04/25 02:13:09;;;;;;;9.10;6.40;;;;;;;11.61;100.00;99862.64;105461;1254;62803;-58
2023/04/25 02:15:43;;;;;;;10.50;8.10;;;;;;;11.57;100.00;99863.28;105361;1256;75129;-58
2023/04/25 02:18:20;;;;;;;7.20;6.30;;;;;;;11.59;100.00;99863.80;105433;1259;68488;-59
2023/04/25 02:20:47;;;;;;;7.90;6.00;;;;;;;11.56;100.00;99866.41;105207;1257;75289;-58
2023/04/25 02:23:18;;;;;;;8.30;6.90;;;;;;;11.58;100.00;99867.21;105644;1257;64221;-58
2023/04/25 02:25:46;;;;;;;;;;;;;;;11.56;100.00;99864.52;105824;1259;61890;-59
2023/04/25 02:28:13;;;;;;;11.00;6.50;;;;;;;11.58;100.00;99864.45;105566;1259;77264;-58
2023/04/25 02:30:40;;;;;;;8.60;6.00;;;;;;;11.57;100.00;99861.80;105105;1260;68435;-59
2023/04/25 02:33:07;;;;;;;8.00;5.60;;;;;;;11.55;100.00;99858.45;105384;1257;75158;-59
2023/04/25 02:35:35;;;;;;;10.00;5.90;;;;;;;11.53;100.00;99856.23;105379;1254;64690;-58
2023/04/25 02:38:02;;;;;;;7.80;5.80;;;;;;;11.53;100.00;99853.80;105715;1254;63214;-62
2023/04/25 02:40:29;;;;;;;7.50;5.30;;;;;;;11.56;100.00;99850.27;105132;1262;76116;-60
2023/04/25 02:42:56;;;;;;;7.00;5.50;;;;;;;11.59;100.00;99851.99;105552;1256;69635;-58
2023/04/25 02:45:26;;;;;;;5.90;4.70;;;;;;;11.61;100.00;99848.51;105479;1254;75209;-59
2023/04/25 02:47:53;;;;;;;6.30;5.10;;;;;;;11.63;100.00;99850.84;105753;1259;61564;-59
2023/04/25 02:50:20;;;;;;;7.90;5.80;;;;;;;11.65;100.00;99848.34;105588;1257;61539;-58
2023/04/25 02:52:47;;;;;;;10.30;6.00;;;;;;;11.66;100.00;99845.20;105534;1256;76365;-59
2023/04/25 02:55:18;;;;;;;8.10;5.90;;;;;;;11.65;100.00;99844.65;105777;1258;68550;-58
2023/04/25 02:57:45;;;;;;;8.50;5.90;;;;;;;11.65;100.00;99840.77;105590;1259;75299;-63
2023/04/25 03:00:17;;;;;;;9.30;6.60;;;;;;;11.64;100.00;99838.95;105402;1259;64875;-57
2023/04/25 03:02:45;;;;;;;9.20;7.10;;;;;;;11.64;100.00;99836.34;105808;1256;62696;-58
2023/04/25 03:05:12;;;;;;;9.30;7.50;;;;;;;11.66;100.00;99835.20;105422;1260;76197;-57
2023/04/25 03:07:40;;;;;;;9.60;6.80;;;;;;;11.67;100.00;99836.80;105650;1257;69589;-58
2023/04/25 03:10:09;;;;;;;8.80;6.70;;;;;;;11.68;100.00;99837.27;105488;1257;74285;-57
2023/04/25 03:12:37;;;;;;;8.90;7.90;;;;;;;11.69;100.00;99834.56;105492;1260;63348;-57
2023/04/25 03:15:05;;;;;;;8.50;7.50;;;;;;;11.70;100.00;99836.75;105527;1255;62902;-57
2023/04/25 03:17:32;;;;;;;9.30;8.00;;;;;;;11.69;100.00;99832.96;105623;1261;76478;-61
2023/04/25 03:20:00;;;;;;;10.20;8.60;;;;;;;11.75;100.00;99826.34;105428;1261;69093;-58
2023/04/25 03:22:28;;;;;;;13.10;8.50;;;;;;;11.77;100.00;99826.34;105505;1257;75717;-57
2023/04/25 03:24:55;;;;;;;9.80;8.50;;;;;;;11.80;100.00;99823.49;105207;1257;65017;-58
2023/04/25 03:27:22;;;;;;;10.00;8.20;;;;;;;11.83;100.00;99823.39;105698;1257;61402;-58
2023/04/25 03:29:50;;;;;;;10.40;7.90;;;;;;;11.83;100.00;99824.56;105611;1260;75979;-63
2023/04/25 03:32:18;;;;;;;9.20;6.50;;;;;;;11.83;100.00;99825.16;105308;1260;69522;-59
2023/04/25 03:34:45;;;;;;;12.50;7.90;;;;;;;11.82;100.00;99823.10;105351;1262;75410;-58
2023/04/25 03:37:13;;;;;;;6.60;5.90;;;;;;;11.82;100.00;99823.13;105408;1261;63451;-58
2023/04/25 03:39:40;;;;;;;8.60;7.70;;;;;;;11.82;100.00;99821.56;105616;1261;61559;-61
2023/04/25 03:42:07;;;;;;;9.70;8.10;;;;;;;11.83;100.00;99820.21;105186;1257;76441;-62
2023/04/25 03:44:34;;;;;;;13.10;11.20;;;;;;;11.81;100.00;99819.60;105247;1257;70055;-58
2023/04/25 03:47:02;;;;;;;12.30;11.00;;;;;;;11.84;100.00;99817.85;105474;1257;75180;-57
2023/04/25 03:49:29;;;;;;;14.30;12.20;;;;;;;11.86;100.00;99816.05;105558;1260;63294;-58
2023/04/25 03:52:00;;;;;;;9.00;7.90;;;;;;;11.90;100.00;99816.16;105363;1261;62883;-58
2023/04/25 03:54:29;;;;;;;8.70;6.20;;;;;;;11.97;100.00;99818.25;105488;1257;75371;-59
2023/04/25 03:57:05;;;;;;;8.30;5.70;;;;;;;11.98;100.00;99816.36;105129;1256;69517;-58
2023/04/25 03:59:35;;;;;;;8.50;5.10;;;;;;;11.99;100.00;99814.38;105377;1261;75359;-64
2023/04/25 04:02:02;;;;;;;7.30;6.00;;;;;;;11.98;100.00;99810.30;105453;1257;64229;-58
2023/04/25 04:04:31;;;;;;;7.00;5.30;;;;;;;12.01;100.00;99806.98;105276;1261;63225;-58
2023/04/25 04:06:59;;;;;;;8.00;7.00;;;;;;;12.03;100.00;99801.64;105373;1260;76343;-58
2023/04/25 04:09:30;;;;;;;5.70;5.00;;;;;;;12.09;100.00;99799.30;105559;1255;68453;-59
2023/04/25 04:11:59;;;;;;;10.00;6.10;;;;;;;12.11;100.00;99797.20;105574;1257;75206;-58
2023/04/25 04:14:26;;;;;;;6.50;4.40;;;;;;;12.12;100.00;99798.70;105392;1256;64932;-60
2023/04/25 04:16:54;;;;;;;5.00;3.60;;;;;;;12.16;100.00;99798.88;105623;1256;61792;-58
2023/04/25 04:19:22;;;;;;;6.40;4.30;;;;;;;12.19;100.00;99800.81;105436;1254;76238;-58
2023/04/25 04:22:02;;;;;;;5.80;4.00;;;;;;;12.22;100.00;99799.84;105173;1257;70252;-57
2023/04/25 04:24:29;;;;;;;8.20;4.60;;;;;;;12.21;100.00;99798.99;105465;1259;75306;-58
2023/04/25 04:27:02;;;;;;;7.10;4.50;;;;;;;12.19;100.00;99799.80;105125;1262;63481;-58
2023/04/25 04:29:36;;;;;;;20.10;17.90;;;;;;;12.17;100.00;99794.67;105609;1257;61405;-64
2023/04/25 04:32:27;;;;;;;26.80;23.50;;;;;;;12.18;100.00;99791.77;105180;1257;75327;-60
2023/04/25 04:34:55;;;;;;;15.00;13.40;;;;;;;12.21;100.00;99789.48;105463;1261;68506;-59
2023/04/25 04:37:23;;;;;;;12.20;10.90;;;;;;;12.20;100.00;99787.11;105331;1257;74108;-58
2023/04/25 04:39:51;;;;;;;6.80;4.50;;;;;;;12.21;100.00;99784.69;105405;1256;64960;-62
2023/04/25 04:42:25;;;;;;;7.00;6.20;;;;;;;12.22;100.00;99780.94;105399;1260;61765;-59
2023/04/25 04:45:05;;;;;;;5.30;4.30;;;;;;;12.23;100.00;99779.60;105418;1260;76411;-58
2023/04/25 04:48:00;;;;;;;4.20;3.00;;;;;;;12.24;100.00;99778.45;105283;1256;68578;-59
2023/04/25 04:50:53;;;;;;;5.00;3.40;;;;;;;12.29;100.00;99778.52;105545;1257;75191;-62
2023/04/25 04:53:40;;;;;;;4.50;3.20;;;;;;;12.34;100.00;99770.50;105458;1259;63503;-61
2023/04/25 04:56:23;;;;;;;5.90;3.10;;;;;;;12.40;100.00;99771.40;105313;1255;62925;-60
2023/04/25 04:59:14;;;;;;;6.10;3.70;;;;;;;12.46;100.00;99771.54;105171;1257;74543;-60
2023/04/25 05:02:01;;;;;;;4.50;2.90;;;;;;;12.56;100.00;99769.61;105227;1259;68432;-60
2023/04/25 05:04:44;;;;;;;4.60;3.40;;;;;;;12.64;100.00;99763.83;105564;1257;74727;-63
2023/04/25 05:07:49;;;;;;;4.20;2.50;;;;;;;12.76;100.00;99761.98;105198;1263;64478;-59
2023/04/25 05:10:40;;;;;;;4.90;3.10;;;;;;;12.82;100.00;99761.52;105455;1265;61569;-59
2023/04/25 05:13:32;;;;;;;3.50;2.50;;;;;;;12.86;100.00;99759.56;105787;1257;75295;-58
2023/04/25 05:16:16;;;;;;;4.80;3.00;;;;;;;12.91;100.00;99755.60;105224;1259;68425;-59
2023/04/25 05:18:58;;;;;;;4.40;2.90;;;;;;;12.99;100.00;99755.18;105378;1259;74083;-59
2023/04/25 05:21:46;;;;;;;3.70;2.40;;;;;;;13.06;100.00;99755.39;105562;1257;61374;-63
2023/04/25 05:24:31;;;;;;;5.80;3.10;;;;;;;13.13;100.00;99751.84;105162;1255;61684;-57
2023/04/25 05:27:25;;;;;;;3.40;2.40;;;;;;;13.18;100.00;99746.44;105463;1257;76536;-63
2023/04/25 05:30:12;;;;;;;3.90;2.40;;;;;;;13.20;100.00;99745.50;105041;1256;70119;-58
2023/04/25 05:33:09;;;;;;;3.70;2.40;;;;;;;13.21;100.00;99742.16;105418;1264;75739;-58
2023/04/25 05:35:36;;;;;;;6.00;2.50;;;;;;;13.21;100.00;99740.27;105614;1259;63375;-60
2023/04/25 05:38:03;;;;;;;3.70;2.40;;;;;;;13.22;100.00;99734.91;105495;1259;62811;-57
2023/04/25 05:40:51;;;;;;;4.60;2.40;;;;;;;13.27;100.00;99728.89;105159;1257;75515;-57
2023/04/25 05:43:56;;;;;;;3.70;2.60;;;;;;;13.37;100.00;99725.40;105351;1257;69337;-64
2023/04/25 05:46:29;;;;;;;4.80;2.90;;;;;;;13.51;100.00;99719.75;105275;1262;75079;-58
2023/04/25 05:49:11;;;;;;;4.20;2.70;;;;;;;13.68;100.00;99719.44;105223;1259;63433;-58
2023/04/25 05:52:01;;;;;;;3.60;2.50;;;;;;;13.86;100.00;99716.03;105214;1259;62854;-63
2023/04/25 05:54:43;;;;;;;4.30;2.50;;;;;;;14.08;100.00;99715.11;105452;1257;75204;-57
2023/04/25 05:57:25;;;;;;;3.40;2.40;;;;;;;14.32;100.00;99710.95;105119;1262;70370;-57
2023/04/25 05:59:53;;;;;;;3.90;2.40;;;;;;;14.63;100.00;99704.98;105674;1262;75156;-63
2023/04/25 06:02:22;;;;;;;3.40;2.20;;;;;;;14.89;100.00;99703.45;105244;1257;64487;-57
2023/04/25 06:04:50;;;;;;;5.20;1.90;;;;;;;15.13;100.00;99700.20;105370;1257;61768;-58
2023/04/25 06:07:18;;;;;;;4.50;2.30;;;;;;;15.37;100.00;99694.72;105654;1257;76029;-63
2023/04/25 06:09:46;;;;;;;3.10;1.80;;;;;;;15.60;100.00;99687.55;105162;1262;69098;-58
2023/04/25 06:12:14;;;;;;;3.20;2.10;;;;;;;15.80;100.00;99682.12;105431;1257;75235;-58
2023/04/25 06:14:41;;;;;;;3.10;1.90;;;;;;;15.95;100.00;99675.80;105519;1257;62299;-57
2023/04/25 06:17:09;;;;;;;2.70;1.50;;;;;;;16.08;100.00;99673.06;105367;1257;62361;-58
2023/04/25 06:19:36;;;;;;;2.30;1.20;;;;;;;16.17;100.00;99667.73;105714;1255;76039;-64
2023/04/25 06:22:04;;;;;;;2.30;1.20;;;;;;;16.24;100.00;99655.60;105328;1257;69524;-59
2023/04/25 06:24:31;;;;;;;2.70;1.50;;;;;;;16.30;100.00;99645.88;105292;1259;73902;-58
2023/04/25 06:26:58;;;;;;;4.70;1.80;;;;;;;16.38;100.00;99638.07;105401;1255;62709;-58
2023/04/25 06:29:26;;;;;;;2.50;1.60;;;;;;;16.43;100.00;99631.95;105486;1257;62522;-58
2023/04/25 06:31:53;;;;;;;2.10;1.40;;;;;;;16.48;100.00;99631.68;105293;1254;76197;-59
2023/04/25 06:34:21;;;;;;;3.10;1.50;;;;;;;16.50;100.00;99629.66;105401;1259;68266;-58
2023/04/25 06:36:48;;;;;;;2.80;1.60;;;;;;;16.47;100.00;99623.97;105435;1260;74985;-58
2023/04/25 06:39:16;;;;;;;3.20;1.70;;;;;;;16.47;100.00;99618.09;105450;1262;61626;-57
2023/04/25 06:41:43;;;;;;;2.50;1.30;;;;;;;16.46;100.00;99616.27;105201;1262;61758;-59
2023/04/25 06:44:31;;;;;;;2.70;1.50;;;;;;;16.53;100.00;99609.92;105494;1257;74790;-58
2023/04/25 06:46:58;;;;;;;2.50;1.70;;;;;;;16.54;100.00;99607.79;105420;1259;69072;-59
2023/04/25 06:49:25;;;;;;;3.00;1.60;;;;;;;16.62;100.00;99607.80;105419;1257;73166;-62
2023/04/25 06:51:52;;;;;;;4.90;1.60;;;;;;;16.78;100.00;99607.09;105158;1263;63521;-57
2023/04/25 06:54:20;;;;;;;2.40;1.00;;;;;;;16.90;100.00;99602.31;105481;1257;61493;-59
2023/04/25 06:56:55;;;;;;;1.90;1.20;;;;;;;16.96;100.00;99596.04;105218;1260;76046;-58
2023/04/25 06:59:23;;;;;;;2.20;1.40;;;;;;;16.90;100.00;99589.48;105488;1262;69226;-61
2023/04/25 07:01:50;;;;;;;4.20;1.20;;;;;;;16.72;100.00;99591.55;105571;1262;76134;-58
2023/04/25 07:04:20;;;;;;;1.70;0.90;;;;;;;16.66;100.00;99587.98;105316;1262;63729;-60
2023/04/25 07:06:50;;;;;;;1.90;1.00;;;;;;;16.61;100.00;99583.70;105416;1260;62754;-58
2023/04/25 07:09:21;;;;;;;2.00;0.90;;;;;;;16.62;100.00;99584.13;105646;1260;76172;-59
2023/04/25 07:11:50;;;;;;;1.40;0.70;;;;;;;16.74;100.00;99581.43;105449;1257;69072;-59
2023/04/25 07:14:17;;;;;;;1.50;0.90;;;;;;;16.88;100.00;99579.13;105466;1257;75145;-58
2023/04/25 07:16:45;;;;;;;1.60;0.80;;;;;;;16.97;100.00;99575.31;105369;1260;64513;-58
2023/04/25 07:19:12;;;;;;;2.60;1.00;;;;;;;17.08;100.00;99576.63;105644;1257;63566;-64
2023/04/25 07:21:39;;;;;;;3.60;1.00;;;;;;;17.28;100.00;99577.65;105585;1262;76956;-59
2023/04/25 07:24:07;;;;;;;1.90;1.00;;;;;;;17.43;100.00;99578.16;105519;1257;69326;-58
2023/04/25 07:26:37;;;;;;;1.40;0.80;;;;;;;17.57;100.00;99574.64;105336;1260;74208;-58
2023/04/25 07:29:23;;;;;;;1.30;0.70;;;;;;;17.71;100.00;99572.75;105169;1257;64440;-59
2023/04/25 07:31:50;;;;;;;3.20;1.10;;;;;;;17.93;100.00;99571.27;105431;1256;61785;-59
2023/04/25 07:34:19;;;;;;;4.70;0.80;;;;;;;18.09;100.00;99570.44;105669;1255;75212;-58
2023/04/25 07:36:46;;;;;;;0.80;0.50;;;;;;;18.15;100.00;99568.95;105615;1260;69590;-60
2023/04/25 07:39:13;;;;;;;1.40;0.70;;;;;;;18.17;100.00;99564.88;105619;1257;75312;-58
2023/04/25 07:41:41;;;;;;;2.00;1.00;;;;;;;18.09;100.00;99567.95;105403;1259;61853;-59
2023/04/25 07:44:12;;;;;;;2.50;1.00;;;;;;;18.08;100.00;99564.52;105212;1254;61425;-58
2023/04/25 07:46:39;;;;;;;1.80;1.00;;;;;;;17.96;100.00;99562.06;105774;1259;76377;-59
2023/04/25 07:49:06;;;;;;;1.90;1.10;;;;;;;17.89;100.00;99564.38;105250;1265;69858;-63
2023/04/25 07:51:34;;;;;;;1.40;0.60;;;;;;;17.92;100.00;99560.77;105212;1262;75530;-59
2023/04/25 07:54:05;;;;;;;1.40;0.70;;;;;;;17.95;100.00;99562.86;105476;1257;62564;-58
2023/04/25 07:56:34;;;;;;;2.20;0.70;;;;;;;17.94;100.00;99562.95;105251;1260;61944;-62
2023/04/25 07:59:18;;;;;;;2.40;0.60;;;;;;;17.90;100.00;99559.52;105542;1257;75716;-61
2023/04/25 08:01:46;;;;;;;5.40;0.90;;;;;;;17.90;100.00;99560.06;105398;1257;69441;-60
2023/04/25 08:04:13;;;;;;;1.70;0.90;;;;;;;17.92;100.00;99561.30;105460;1259;74156;-61
2023/04/25 08:06:48;;;;;;;1.70;1.00;;;;;;;17.96;100.00;99558.70;105387;1257;62000;-59
2023/04/25 08:09:19;;;;;;;1.40;0.80;;;;;;;17.93;100.00;99562.89;105398;1260;61856;-59
2023/04/25 08:11:47;;;;;;;1.20;0.60;;;;;;;17.82;100.00;99559.13;105248;1261;76519;-58
2023/04/25 08:14:15;;;;;;;2.20;1.20;;;;;;;17.59;100.00;99561.63;105261;1262;68296;-60
2023/04/25 08:16:43;;;;;;;2.60;0.60;;;;;;;17.31;100.00;99559.11;105444;1264;75220;-59
2023/04/25 08:19:13;;;;;;;1.00;0.50;;;;;;;17.24;100.00;99553.10;105146;1258;63488;-59
2023/04/25 08:21:40;;;;;;;2.10;0.80;;;;;;;17.02;100.00;99549.16;105203;1262;61369;-59
2023/04/25 08:24:10;;;;;;;1.30;0.60;;;;;;;16.87;100.00;99544.46;105569;1262;76324;-64
2023/04/25 08:26:40;;;;;;;1.40;0.80;;;;;;;16.71;100.00;99543.23;105433;1263;69343;-58
2023/04/25 08:29:08;;;;;;;2.90;1.10;;;;;;;16.73;100.00;99543.59;105610;1257;74110;-63
2023/04/25 08:31:38;;;;;;;2.00;0.70;;;;;;;16.84;100.00;99542.81;105310;1262;64521;-59
2023/04/25 08:34:05;;;;;;;1.70;0.80;;;;;;;16.94;100.00;99539.52;105880;1260;62919;-65
2023/04/25 08:36:41;;;;;;;1.10;0.70;;;;;;;17.06;100.00;99537.95;105471;1257;75096;-59
2023/04/25 08:39:21;;;;;;;2.00;0.80;;;;;;;17.31;100.00;99535.85;105540;1259;68609;-59
2023/04/25 08:42:08;;;;;;;2.20;0.80;;;;;;;17.49;100.00;99527.73;105397;1257;75271;-59
2023/04/25 08:44:36;;;;;;;1.00;0.60;;;;;;;17.64;100.00;99522.73;105132;1260;61782;-64
2023/04/25 08:47:04;;;;;;;2.40;1.00;;;;;;;17.73;100.00;99520.44;105520;1260;61439;-60
2023/04/25 08:49:37;;;;;;;1.70;0.70;;;;;;;17.86;100.00;99516.20;105216;1262;76353;-63
2023/04/25 08:52:06;;;;;;;3.00;1.60;;;;;;;18.03;100.00;99517.89;105257;1263;70241;-59
2023/04/25 08:54:33;;;;;;;1.60;0.80;;;;;;;18.17;100.00;99516.17;105331;1264;75052;-60
2023/04/25 08:57:04;;;;;;;1.10;0.70;;;;;;;18.36;100.00;99510.20;105192;1260;62718;-60
2023/04/25 08:59:32;;;;;;;2.20;1.00;;;;;;;18.52;100.00;99511.52;105405;1258;61706;-60
2023/04/25 09:02:00;;;;;;;1.10;0.60;;;;;;;18.54;100.00;99506.96;105326;1262;75760;-60
2023/04/25 09:04:31;;;;;;;1.20;0.60;;;;;;;18.51;100.00;99509.04;105506;1261;70402;-59
2023/04/25 09:06:58;;;;;;;1.80;0.90;;;;;;;18.53;100.00;99508.02;105304;1256;75223;-59
2023/04/25 09:09:25;;;;;;;2.40;0.70;;;;;;;18.64;100.00;99504.59;105579;1260;62566;-60
2023/04/25 09:11:54;;;;;;;1.70;0.70;;;;;;;18.75;100.00;99501.48;105763;1260;61777;-63
2023/04/25 09:14:22;;;;;;;3.00;0.90;;;;;;;18.86;100.00;99500.96;105150;1261;76267;-60
2023/04/25 09:17:08;;;;;;;0.80;0.50;;;;;;;18.91;100.00;99501.20;105344;1257;273939;-60
2023/04/25 09:19:44;;;;;;;1.30;0.60;;;;;;;18.84;100.00;99503.21;105725;1260;75085;-64
2023/04/25 09:22:37;;;;;;;1.80;0.70;;;;;;;18.80;100.00;99500.65;105426;1259;63038;-59
2023/04/25 09:25:11;;;;;;;1.60;0.70;;;;;;;18.87;100.00;99493.25;105531;1254;62440;-60
2023/04/25 09:27:52;;;;;;;2.00;0.80;;;;;;;19.04;100.00;99496.24;105400;1260;75809;-60
2023/04/25 09:30:34;;;;;;;1.70;0.60;;;;;;;19.24;100.00;99494.21;105334;1260;69234;-59
2023/04/25 09:33:17;;;;;;;1.70;0.40;;;;;;;19.45;100.00;99494.23;105142;1260;73608;-59
2023/04/25 09:35:52;;;;;;;1.60;0.50;;;;;;;19.54;100.00;99489.45;105441;1262;61823;-59
2023/04/25 09:38:44;;;;;;;1.10;0.50;;;;;;;19.65;100.00;99486.86;105138;1262;62047;-63
2023/04/25 09:41:25;;;;;;;1.60;0.60;;;;;;;19.53;100.00;99493.99;105119;1255;76332;-59
2023/04/25 09:43:57;;;;;;;1.00;0.50;;;;;;;19.29;100.00;99495.73;105302;1262;69673;-59
2023/04/25 09:46:34;;;;;;;2.10;0.60;;;;;;;19.29;100.00;99495.09;105208;1260;74879;-61
2023/04/25 09:49:06;;;;;;;1.30;0.60;;;;;;;19.22;100.00;99493.05;105412;1260;61472;-59
2023/04/25 09:51:40;;;;;;;1.30;0.60;;;;;;;19.20;100.00;99490.29;105055;1263;62636;-59
2023/04/25 09:54:08;;;;;;;0.70;0.40;;;;;;;19.27;100.00;99493.33;105521;1260;76970;-61
2023/04/25 09:56:47;;;;;;;1.90;0.60;;;;;;;19.34;100.00;99491.77;105333;1260;68477;-59
2023/04/25 09:59:14;;;;;;;1.40;0.60;;;;;;;19.32;100.00;99492.52;105357;1257;74248;-60
2023/04/25 10:01:41;;;;;;;1.10;0.50;;;;;;;19.25;100.00;99493.74;105315;1261;62430;-59
2023/04/25 10:04:12;;;;;;;1.40;0.60;;;;;;;19.16;100.00;99489.64;105359;1255;63421;-61
2023/04/25 10:06:49;;;;;;;1.40;0.60;;;;;;;18.93;100.00;99490.86;105379;1255;76535;-59
2023/04/25 10:09:18;;;;;;;1.00;0.60;;;;;;;18.66;100.00;99492.11;105439;1254;69350;-60
2023/04/25 10:11:47;;;;;;;2.50;0.70;;;;;;;18.49;100.00;99496.11;105358;1261;73681;-58
2023/04/25 10:14:15;;;;;;;0.80;0.40;;;;;;;18.33;100.00;99493.55;105323;1254;61754;-59
2023/04/25 10:16:42;;;;;;;2.20;0.40;;;;;;;18.16;100.00;99499.02;105538;1260;62708;-58
2023/04/25 10:19:10;;;;;;;1.50;0.60;;;;;;;17.97;100.00;99501.91;105642;1255;75201;-60
2023/04/25 10:22:13;;;;;;;1.30;0.60;;;;;;;17.70;100.00;99502.41;105721;1254;69493;-62
2023/04/25 10:24:40;;;;;;;0.80;0.40;;;;;;;17.41;100.00;99504.61;105709;1265;73849;-62
2023/04/25 10:27:07;;;;;;;2.80;0.70;;;;;;;17.14;100.00;99502.14;105493;1254;62214;-58
2023/04/25 10:29:35;;;;;;;1.00;0.40;;;;;;;17.01;100.00;99498.39;105636;1254;61795;-61
2023/04/25 10:32:02;;;;;;;1.30;0.60;;;;;;;16.95;100.00;99492.89;105483;1259;75477;-58
2023/04/25 10:34:43;;;;;;;1.30;0.70;;;;;;;16.91;100.00;99493.16;105502;1260;69198;-58
2023/04/25 10:37:11;;;;;;;3.30;1.10;;;;;;;16.88;100.00;99491.84;105465;1260;75039;-58
2023/04/25 10:39:40;;;;;;;1.30;0.60;;;;;;;16.90;100.00;99489.77;105297;1262;62483;-58
2023/04/25 10:42:09;;;;;;;2.00;0.60;;;;;;;16.80;100.00;99490.52;105423;1254;62551;-58
2023/04/25 10:44:38;;;;;;;1.70;0.40;;;;;;;16.65;100.00;99487.60;105678;1257;75470;-63
2023/04/25 10:47:07;;;;;;;2.40;0.70;;;;;;;16.58;100.00;99487.39;105335;1263;68606;-58
2023/04/25 10:49:36;;;;;;;1.30;0.70;;;;;;;16.51;100.00;99487.34;105395;1258;75179;-62
2023/04/25 10:52:17;;;;;;;1.70;0.60;;;;;;;16.53;100.00;99485.59;105511;1258;61774;-58
2023/04/25 10:54:47;;;;;;;1.80;0.80;;;;;;;16.56;100.00;99485.98;105352;1261;62856;-58
2023/04/25 10:57:38;;;;;;;0.90;0.50;;;;;;;16.71;100.00;99482.39;105512;1261;76218;-59
2023/04/25 11:00:19;;;;;;;1.40;0.60;;;;;;;16.88;100.00;99478.41;105358;1257;69154;-60
2023/04/25 11:03:06;;;;;;;1.10;0.50;;;;;;;16.98;100.00;99476.83;105546;1254;75025;-63
2023/04/25 11:05:35;;;;;;;2.00;0.50;;;;;;;17.15;100.00;99475.71;105458;1260;62664;-59
2023/04/25 11:08:17;;;;;;;1.70;0.60;;;;;;;17.44;100.00;99471.05;105601;1254;62884;-61
2023/04/25 11:10:44;;;;;;;1.30;0.50;;;;;;;17.77;100.00;99467.34;105345;1263;76412;-58
2023/04/25 11:13:11;;;;;;;5.60;0.60;;;;;;;18.08;100.00;99462.13;105481;1260;68704;-58
2023/04/25 11:15:38;;;;;;;1.10;0.70;;;;;;;18.38;100.00;99458.81;105516;1254;74493;-59
2023/04/25 11:18:06;;;;;;;1.30;0.70;;;;;;;18.67;100.00;99453.99;105723;1257;61806;-62
2023/04/25 11:20:35;;;;;;;2.80;0.40;;;;;;;19.02;100.00;99454.13;105443;1260;62891;-58
2023/04/25 11:23:02;;;;;;;0.90;0.50;;;;;;;19.41;100.00;99449.23;105350;1254;75246;-58
2023/04/25 11:25:34;;;;;;;2.10;0.80;;;;;;;19.87;100.00;99439.61;105213;1260;69426;-59
2023/04/25 11:28:04;;;;;;;1.40;0.60;;;;;;;20.25;100.00;99437.80;105465;1255;75339;-58
2023/04/25 11:30:32;;;;;;;1.60;0.50;;;;;;;20.51;100.00;99441.63;105550;1260;62941;-58
2023/04/25 11:32:59;;;;;;;1.70;0.40;;;;;;;20.59;100.00;99446.09;105401;1260;62511;-58
2023/04/25 11:35:26;;;;;;;1.40;0.50;;;;;;;20.51;100.00;99443.50;105232;1254;76164;-59
2023/04/25 11:37:53;;;;;;;1.60;0.60;;;;;;;20.46;100.00;99439.20;105696;1260;68752;-61